createdAt,value
2023-04-19T00:02:27.172Z,8.97
2023-04-19T00:04:55.858Z,7.97
2023-04-19T00:07:23.568Z,8.80
2023-04-19T00:09:51.256Z,8.47
2023-04-19T00:12:18.888Z,8.13
2023-04-19T00:14:47.835Z,8.50
2023-04-19T00:17:15.410Z,7.90
2023-04-19T00:19:43.125Z,7.57
2023-04-19T00:22:11.109Z,8.23
2023-04-19T00:24:38.737Z,8.77
2023-04-19T00:27:06.686Z,8.87
2023-04-19T00:29:34.319Z,8.03
2023-04-19T00:32:05.804Z,7.30
2023-04-19T00:34:33.780Z,7.40
2023-04-19T00:37:01.425Z,7.97
2023-04-19T00:39:29.025Z,6.90
2023-04-19T00:41:57.416Z,7.27
2023-04-19T00:44:25.453Z,6.47
2023-04-19T00:46:55.408Z,6.90
2023-04-19T00:49:25.189Z,5.73
2023-04-19T00:51:52.924Z,6.00
2023-04-19T00:54:21.655Z,6.33
2023-04-19T00:56:50.553Z,7.20
2023-04-19T00:59:18.540Z,6.30
2023-04-19T01:01:46.643Z,5.90
2023-04-19T01:04:14.772Z,5.80
2023-04-19T01:06:43.956Z,5.70
2023-04-19T01:09:12.231Z,5.73
2023-04-19T01:11:43.436Z,5.37
2023-04-19T01:14:11.683Z,5.13
2023-04-19T01:16:40.032Z,5.40
2023-04-19T01:19:08.486Z,4.83
2023-04-19T01:21:38.277Z,4.47
2023-04-19T01:24:08.152Z,4.93
2023-04-19T01:26:35.908Z,4.43
2023-04-19T01:29:03.624Z,4.23
2023-04-19T01:31:31.665Z,4.70
2023-04-19T01:33:59.599Z,4.37
2023-04-19T01:36:28.736Z,4.10
2023-04-19T01:38:57.679Z,4.80
2023-04-19T01:41:27.606Z,4.50
2023-04-19T01:43:55.185Z,4.03
2023-04-19T01:46:22.811Z,5.37
2023-04-19T01:48:52.057Z,4.40
2023-04-19T01:51:22.864Z,4.87
2023-04-19T01:53:53.471Z,4.80
2023-04-19T01:56:22.963Z,4.40
2023-04-19T01:58:51.995Z,4.83
2023-04-19T02:01:20.219Z,3.93
2023-04-19T02:03:48.024Z,4.50
2023-04-19T02:06:15.937Z,4.40
2023-04-19T02:08:44.229Z,5.20
2023-04-19T02:11:14.387Z,5.70
2023-04-19T02:13:42.299Z,5.27
2023-04-19T02:16:11.774Z,5.87
2023-04-19T02:18:40.674Z,5.40
2023-04-19T02:21:10.400Z,6.30
2023-04-19T02:23:38.010Z,5.60
2023-04-19T02:26:05.834Z,4.57
2023-04-19T02:28:33.649Z,5.50
2023-04-19T02:31:05.707Z,5.43
2023-04-19T02:33:37.077Z,5.70
2023-04-19T02:36:05.019Z,5.93
2023-04-19T02:38:34.407Z,6.37
2023-04-19T02:41:04.324Z,5.30
2023-04-19T02:43:31.989Z,6.50
2023-04-19T02:46:01.042Z,5.87
2023-04-19T02:48:28.692Z,4.77
2023-04-19T02:50:57.822Z,5.20
2023-04-19T02:53:25.544Z,4.93
2023-04-19T02:55:53.289Z,5.10
2023-04-19T02:58:21.478Z,4.30
2023-04-19T03:01:00.686Z,5.17
2023-04-19T03:03:28.710Z,4.80
2023-04-19T03:05:57.937Z,5.10
2023-04-19T03:08:25.762Z,4.70
2023-04-19T03:10:53.586Z,5.43
2023-04-19T03:13:21.310Z,5.00
2023-04-19T03:15:49.370Z,4.90
2023-04-19T03:18:20.894Z,5.50
2023-04-19T03:20:48.874Z,4.60
2023-04-19T03:23:18.314Z,4.73
2023-04-19T03:25:47.254Z,5.03
2023-04-19T03:28:24.448Z,4.83
2023-04-19T03:31:17.357Z,4.10
2023-04-19T03:33:46.130Z,5.07
2023-04-19T03:36:14.674Z,4.90
2023-04-19T03:38:46.010Z,4.73
2023-04-19T03:41:21.807Z,4.17
2023-04-19T03:43:54.279Z,5.07
2023-04-19T03:46:24.566Z,4.57
2023-04-19T03:48:54.011Z,4.33
2023-04-19T03:51:23.418Z,4.73
2023-04-19T03:53:52.445Z,4.97
2023-04-19T03:56:20.568Z,7.60
2023-04-19T03:58:51.774Z,5.03
2023-04-19T04:01:21.516Z,5.27
2023-04-19T04:03:52.400Z,5.40
2023-04-19T04:06:20.312Z,4.53
2023-04-19T04:08:48.468Z,4.10
2023-04-19T04:11:17.576Z,5.03
2023-04-19T04:13:49.884Z,4.00
2023-04-19T04:16:21.981Z,4.40
2023-04-19T04:18:51.473Z,5.40
2023-04-19T04:21:19.808Z,4.90
2023-04-19T04:23:49.875Z,4.43
2023-04-19T04:26:39.654Z,4.17
2023-04-19T04:29:36.819Z,4.17
2023-04-19T04:32:10.527Z,5.00
2023-04-19T04:34:43.043Z,3.93
2023-04-19T04:37:18.336Z,4.93
2023-04-19T04:39:47.852Z,4.57
2023-04-19T04:42:17.653Z,4.27
2023-04-19T04:44:47.386Z,4.37
2023-04-19T04:47:15.915Z,3.97
2023-04-19T04:49:49.930Z,4.03
2023-04-19T04:52:18.500Z,4.03
2023-04-19T04:55:00.777Z,4.27
2023-04-19T04:57:34.689Z,4.90
2023-04-19T05:00:06.791Z,4.27
2023-04-19T05:02:42.919Z,3.90
2023-04-19T05:05:12.341Z,3.80
2023-04-19T05:07:40.364Z,3.60
2023-04-19T05:10:09.476Z,3.53
2023-04-19T05:12:46.341Z,4.03
2023-04-19T05:15:14.444Z,3.50
2023-04-19T05:17:48.849Z,3.13
2023-04-19T05:20:16.763Z,3.87
2023-04-19T05:22:46.209Z,3.00
2023-04-19T05:25:14.310Z,3.50
2023-04-19T05:27:42.660Z,3.47
2023-04-19T05:30:13.154Z,3.00
2023-04-19T05:32:44.389Z,3.03
2023-04-19T05:35:14.473Z,2.70
2023-04-19T05:37:42.509Z,3.03
2023-04-19T05:40:11.011Z,2.63
2023-04-19T05:42:39.644Z,2.70
2023-04-19T05:45:11.302Z,2.57
2023-04-19T05:47:41.939Z,2.37
2023-04-19T05:50:45.572Z,2.90
2023-04-19T05:53:38.758Z,2.03
2023-04-19T05:56:08.085Z,2.67
2023-04-19T05:58:35.927Z,1.73
2023-04-19T06:01:05.016Z,2.37
2023-04-19T06:03:33.552Z,1.97
2023-04-19T06:06:01.719Z,2.17
2023-04-19T06:08:29.411Z,2.30
2023-04-19T06:11:02.617Z,2.10
2023-04-19T06:13:39.583Z,2.53
2023-04-19T06:16:09.254Z,1.97
2023-04-19T06:18:37.188Z,1.83
2023-04-19T06:21:06.350Z,2.00
2023-04-19T06:23:34.253Z,2.10
2023-04-19T06:26:03.589Z,2.00
2023-04-19T06:28:31.541Z,2.23
2023-04-19T06:30:59.799Z,1.70
2023-04-19T06:33:28.281Z,1.93
2023-04-19T06:35:56.247Z,1.60
2023-04-19T06:38:23.945Z,1.53
2023-04-19T06:40:51.632Z,1.83
2023-04-19T06:43:21.480Z,1.40
2023-04-19T06:45:49.256Z,1.30
2023-04-19T06:48:17.059Z,1.30
2023-04-19T06:50:44.818Z,1.30
2023-04-19T06:53:12.586Z,1.00
2023-04-19T06:55:40.421Z,1.20
2023-04-19T06:58:10.922Z,1.13
2023-04-19T07:00:40.497Z,1.00
2023-04-19T07:03:08.624Z,1.30
2023-04-19T07:05:37.952Z,1.23
2023-04-19T07:08:05.725Z,1.10
2023-04-19T07:10:33.576Z,0.93
2023-04-19T07:13:01.594Z,0.90
2023-04-19T07:15:29.598Z,0.90
2023-04-19T07:17:58.880Z,1.20
2023-04-19T07:20:26.723Z,1.20
2023-04-19T07:22:54.649Z,0.93
2023-04-19T07:25:22.493Z,0.90
2023-04-19T07:27:51.402Z,1.10
2023-04-19T07:30:20.308Z,0.80
2023-04-19T07:32:48.435Z,0.83
2023-04-19T07:35:17.620Z,0.87
2023-04-19T07:37:45.327Z,0.90
2023-04-19T07:40:14.310Z,0.90
2023-04-19T07:42:43.488Z,1.37
2023-04-19T07:45:12.059Z,0.77
2023-04-19T07:47:39.736Z,1.40
2023-04-19T07:50:09.394Z,1.30
2023-04-19T07:52:38.496Z,0.90
2023-04-19T07:55:07.545Z,0.80
2023-04-19T07:57:35.866Z,0.90
2023-04-19T08:00:05.077Z,0.70
2023-04-19T08:02:44.270Z,1.00
2023-04-19T08:05:12.652Z,0.77
2023-04-19T08:07:41.716Z,1.47
2023-04-19T08:10:11.141Z,1.07
2023-04-19T08:12:47.292Z,0.93
2023-04-19T08:16:03.482Z,1.13
2023-04-19T08:18:12.705Z,0.90
2023-04-19T08:20:42.547Z,1.00
2023-04-19T08:23:21.448Z,1.00
2023-04-19T08:25:50.900Z,1.00
2023-04-19T08:28:19.189Z,1.03
2023-04-19T08:30:47.176Z,0.90
2023-04-19T08:33:15.076Z,1.20
2023-04-19T08:35:43.305Z,1.13
2023-04-19T08:38:12.812Z,0.73
2023-04-19T08:40:42.697Z,1.10
2023-04-19T08:43:10.775Z,1.17
2023-04-19T08:45:39.185Z,1.10
2023-04-19T08:48:07.649Z,1.07
2023-04-19T08:50:45.502Z,1.60
2023-04-19T08:53:26.106Z,1.67
2023-04-19T08:58:41.302Z,1.10
2023-04-19T09:01:33.887Z,1.30
2023-04-19T09:04:26.588Z,1.40
2023-04-19T09:06:53.662Z,1.33
2023-04-19T09:11:55.547Z,2.10
2023-04-19T09:14:24.157Z,1.03
2023-04-19T09:16:52.990Z,1.30
2023-04-19T09:19:24.952Z,1.93
2023-04-19T09:21:54.418Z,1.93
2023-04-19T09:25:04.340Z,1.10
2023-04-19T09:27:31.156Z,2.07
2023-04-19T09:30:00.172Z,2.10
2023-04-19T09:32:28.668Z,1.60
2023-04-19T09:34:57.913Z,1.40
2023-04-19T09:39:58.832Z,1.43
2023-04-19T09:43:05.314Z,1.40
2023-04-19T09:45:43.569Z,1.60
2023-04-19T09:48:12.263Z,1.50
2023-04-19T09:50:58.478Z,1.40
2023-04-19T09:53:29.677Z,1.57
2023-04-19T09:56:01.976Z,1.77
2023-04-19T10:01:11.197Z,1.77
2023-04-19T10:03:43.500Z,1.50
2023-04-19T10:06:26.755Z,1.40
2023-04-19T10:09:02.574Z,2.60
2023-04-19T10:11:37.170Z,2.43
2023-04-19T10:14:06.176Z,2.97
2023-04-19T10:16:34.468Z,2.10
2023-04-19T10:19:03.907Z,2.17
2023-04-19T10:21:32.756Z,2.20
2023-04-19T10:24:00.932Z,1.83
2023-04-19T10:26:29.048Z,2.00
2023-04-19T10:28:58.451Z,2.33
2023-04-19T10:31:27.340Z,1.90
2023-04-19T10:33:57.450Z,1.20
2023-04-19T10:36:28.447Z,1.57
2023-04-19T10:38:56.402Z,1.80
2023-04-19T10:41:24.097Z,1.70
2023-04-19T10:44:11.228Z,1.70
2023-04-19T10:46:40.879Z,1.63
2023-04-19T10:49:09.832Z,1.60
2023-04-19T10:51:39.492Z,2.20
2023-04-19T10:54:08.252Z,1.70
2023-04-19T10:56:59.560Z,2.20
2023-04-19T10:59:30.968Z,2.10
2023-04-19T11:01:59.731Z,2.33
2023-04-19T11:05:11.545Z,1.80
2023-04-19T11:07:40.880Z,2.63
2023-04-19T11:10:10.337Z,1.70
2023-04-19T11:12:38.046Z,2.33
2023-04-19T11:15:09.494Z,2.03
2023-04-19T11:17:38.678Z,1.53
2023-04-19T11:20:09.375Z,1.80
2023-04-19T11:22:38.059Z,1.90
2023-04-19T11:25:07.233Z,2.63
2023-04-19T11:27:35.371Z,2.10
2023-04-19T11:30:05.752Z,1.83
2023-04-19T11:32:35.329Z,2.10
2023-04-19T11:35:08.280Z,1.80
2023-04-19T11:37:36.683Z,1.40
2023-04-19T11:40:06.441Z,1.90
2023-04-19T11:42:36.058Z,2.50
2023-04-19T11:45:05.206Z,1.80
2023-04-19T11:47:35.672Z,1.60
2023-04-19T11:50:50.108Z,1.70
2023-04-19T11:53:19.543Z,1.87
2023-04-19T11:55:48.415Z,1.80
2023-04-19T11:58:28.941Z,1.70
2023-04-19T12:00:58.228Z,2.00
2023-04-19T12:03:27.695Z,1.60
2023-04-19T12:05:57.180Z,2.03
2023-04-19T12:08:32.237Z,2.20
2023-04-19T12:11:00.911Z,2.03
2023-04-19T12:13:28.732Z,1.67
2023-04-19T12:15:57.043Z,2.33
2023-04-19T12:18:25.003Z,1.63
2023-04-19T12:20:54.929Z,2.67
2023-04-19T12:23:22.979Z,1.77
2023-04-19T12:25:51.076Z,1.67
2023-04-19T12:28:18.862Z,1.87
2023-04-19T12:30:47.474Z,1.60
2023-04-19T12:33:15.273Z,1.50
2023-04-19T12:35:44.992Z,1.80
2023-04-19T12:38:14.075Z,2.23
2023-04-19T12:40:41.859Z,1.83
2023-04-19T12:43:09.554Z,1.80
2023-04-19T12:45:37.565Z,1.37
2023-04-19T12:48:07.067Z,1.57
2023-04-19T12:50:35.249Z,1.80
2023-04-19T12:53:03.254Z,2.00
2023-04-19T12:55:32.317Z,1.90
2023-04-19T12:57:59.951Z,1.87
2023-04-19T13:00:27.853Z,1.53
2023-04-19T13:02:55.802Z,1.90
2023-04-19T13:05:24.034Z,1.87
2023-04-19T13:07:51.930Z,1.67
2023-04-19T13:10:21.161Z,1.80
2023-04-19T13:12:50.636Z,1.90
2023-04-19T13:15:19.002Z,1.83
2023-04-19T13:17:47.186Z,1.70
2023-04-19T13:20:14.916Z,1.47
2023-04-19T13:22:42.878Z,1.80
2023-04-19T13:25:11.255Z,2.23
2023-04-19T13:27:39.014Z,1.97
2023-04-19T13:30:09.742Z,2.30
2023-04-19T13:32:37.716Z,2.10
2023-04-19T13:35:06.038Z,1.60
2023-04-19T13:37:33.736Z,2.13
2023-04-19T13:40:11.113Z,2.10
2023-04-19T13:42:43.018Z,2.50
2023-04-19T13:45:13.148Z,1.70
2023-04-19T13:47:40.910Z,2.53
2023-04-19T13:50:09.404Z,1.60
2023-04-19T13:52:37.244Z,1.27
2023-04-19T13:55:05.463Z,1.83
2023-04-19T13:57:33.073Z,1.70
2023-04-19T14:00:00.784Z,1.60
2023-04-19T14:02:30.064Z,2.40
2023-04-19T14:04:59.006Z,2.70
2023-04-19T14:07:26.958Z,1.73
2023-04-19T14:09:54.615Z,1.40
2023-04-19T14:12:22.240Z,2.30
2023-04-19T14:14:50.487Z,1.60
2023-04-19T14:17:18.248Z,2.03
2023-04-19T14:19:47.402Z,1.60
2023-04-19T14:22:15.114Z,1.50
2023-04-19T14:24:42.827Z,1.60
2023-04-19T14:27:11.771Z,1.60
2023-04-19T14:29:40.064Z,1.70
2023-04-19T14:32:20.887Z,1.80
2023-04-19T14:34:53.898Z,1.60
2023-04-19T14:37:22.834Z,2.10
2023-04-19T14:39:50.453Z,1.50
2023-04-19T14:42:20.043Z,1.83
2023-04-19T14:44:51.960Z,2.90
2023-04-19T14:47:20.222Z,2.07
2023-04-19T14:49:48.043Z,1.50
2023-04-19T14:52:17.404Z,1.60
2023-04-19T14:54:45.081Z,1.70
2023-04-19T14:57:12.994Z,2.70
2023-04-19T14:59:40.662Z,1.53
2023-04-19T15:02:10.515Z,2.00
2023-04-19T15:04:41.088Z,2.10
2023-04-19T15:07:09.237Z,1.37
2023-04-19T15:09:38.314Z,1.63
2023-04-19T15:12:06.044Z,2.03
2023-04-19T15:14:33.671Z,1.27
2023-04-19T15:17:01.724Z,1.83
2023-04-19T15:19:31.885Z,2.07
2023-04-19T15:21:59.529Z,1.10
2023-04-19T15:24:27.238Z,1.60
2023-04-19T15:26:56.613Z,2.13
2023-04-19T15:29:24.320Z,2.27
2023-04-19T15:31:52.041Z,1.60
2023-04-19T15:34:19.761Z,1.50
2023-04-19T15:36:47.370Z,1.77
2023-04-19T15:39:15.172Z,1.80
2023-04-19T15:41:43.049Z,1.67
2023-04-19T15:44:11.953Z,2.20
2023-04-19T15:46:39.622Z,1.57
2023-04-19T15:49:07.247Z,2.10
2023-04-19T15:51:34.903Z,1.50
2023-04-19T15:54:02.460Z,1.77
2023-04-19T15:56:30.077Z,1.97
2023-04-19T15:58:57.769Z,1.80
2023-04-19T16:01:26.823Z,1.80
2023-04-19T16:03:54.866Z,2.00
2023-04-19T16:06:23.252Z,2.17
2023-04-19T16:08:50.980Z,1.60
2023-04-19T16:11:18.784Z,1.43
2023-04-19T16:13:46.421Z,1.60
2023-04-19T16:16:14.044Z,2.17
2023-04-19T16:18:43.236Z,2.03
2023-04-19T16:21:11.515Z,1.93
2023-04-19T16:23:39.264Z,2.20
2023-04-19T16:26:07.645Z,2.10
2023-04-19T16:28:35.274Z,2.50
2023-04-19T16:31:02.877Z,1.47
2023-04-19T16:33:30.698Z,1.80
2023-04-19T16:35:59.688Z,2.10
2023-04-19T16:38:27.348Z,1.67
2023-04-19T16:40:55.866Z,1.60
2023-04-19T16:43:23.711Z,1.93
2023-04-19T16:45:51.397Z,2.03
2023-04-19T16:48:19.162Z,1.83
2023-04-19T16:50:46.914Z,2.27
2023-04-19T16:53:16.027Z,2.17
2023-04-19T16:55:43.677Z,2.10
2023-04-19T16:58:11.324Z,1.90
2023-04-19T17:00:38.983Z,1.50
2023-04-19T17:03:09.249Z,2.63
2023-04-19T17:05:37.138Z,3.00
2023-04-19T17:08:05.094Z,1.80
2023-04-19T17:10:34.130Z,2.13
2023-04-19T17:13:01.883Z,1.83
2023-04-19T17:15:29.660Z,2.00
2023-04-19T17:17:57.412Z,1.67
2023-04-19T17:20:25.057Z,1.97
2023-04-19T17:22:52.851Z,1.90
2023-04-19T17:25:22.253Z,1.90
2023-04-19T17:27:51.531Z,1.70
2023-04-19T17:30:19.460Z,1.70
2023-04-19T17:32:47.323Z,2.07
2023-04-19T17:35:15.911Z,1.90
2023-04-19T17:37:43.683Z,1.80
2023-04-19T17:40:12.196Z,2.20
2023-04-19T17:42:39.894Z,1.70
2023-04-19T17:45:11.215Z,3.23
2023-04-19T17:47:39.439Z,1.50
2023-04-19T17:50:08.865Z,2.23
2023-04-19T17:52:36.834Z,2.00
2023-04-19T17:55:05.108Z,1.97
2023-04-19T17:57:33.958Z,2.20
2023-04-19T18:00:07.364Z,1.73
2023-04-19T18:02:38.531Z,2.10
2023-04-19T18:05:07.535Z,2.23
2023-04-19T18:07:36.365Z,1.93
2023-04-19T18:10:04.704Z,1.57
2023-04-19T18:12:32.689Z,2.50
2023-04-19T18:15:00.532Z,2.30
2023-04-19T18:17:28.361Z,3.00
2023-04-19T18:19:57.684Z,2.20
2023-04-19T18:22:25.727Z,1.90
2023-04-19T18:24:54.021Z,2.03
2023-04-19T18:27:21.766Z,2.40
2023-04-19T18:29:51.934Z,3.07
2023-04-19T18:32:21.760Z,2.40
2023-04-19T18:34:49.637Z,2.17
2023-04-19T18:37:18.873Z,1.83
2023-04-19T18:39:47.075Z,1.70
2023-04-19T18:42:14.874Z,1.90
2023-04-19T18:47:13.426Z,2.10
2023-04-19T18:49:42.526Z,2.10
2023-04-19T18:52:14.970Z,2.10
2023-04-19T18:54:44.224Z,2.10
2023-04-19T18:57:23.286Z,2.37
2023-04-19T18:59:56.217Z,2.00
2023-04-19T19:02:24.638Z,2.10
2023-04-19T19:04:58.285Z,2.40
2023-04-19T19:10:03.579Z,1.93
2023-04-19T19:12:32.480Z,1.93
2023-04-19T19:15:00.647Z,2.33
2023-04-19T19:17:28.622Z,2.10
2023-04-19T19:19:56.816Z,3.20
2023-04-19T19:22:28.320Z,2.33
2023-04-19T19:24:56.755Z,2.37
2023-04-19T19:27:26.332Z,2.60
2023-04-19T19:29:54.587Z,2.70
2023-04-19T19:32:22.602Z,2.30
2023-04-19T19:34:56.668Z,2.00
2023-04-19T19:37:28.786Z,2.30
2023-04-19T19:39:57.051Z,1.80
2023-04-19T19:42:26.311Z,2.03
2023-04-19T19:44:55.351Z,2.57
2023-04-19T19:47:23.645Z,2.90
2023-04-19T19:50:21.287Z,2.83
2023-04-19T19:52:40.473Z,2.20
2023-04-19T19:55:12.411Z,2.80
2023-04-19T20:00:36.862Z,2.70
2023-04-19T20:03:02.432Z,2.67
2023-04-19T20:05:30.924Z,2.70
2023-04-19T20:08:10.389Z,2.60
2023-04-19T20:10:39.141Z,1.50
2023-04-19T20:13:08.582Z,2.20
2023-04-19T20:15:37.810Z,2.27
2023-04-19T20:18:08.067Z,2.40
2023-04-19T20:20:36.860Z,2.03
2023-04-19T20:23:04.955Z,2.17
2023-04-19T20:25:32.867Z,2.63
2023-04-19T20:28:01.325Z,2.30
2023-04-19T20:30:30.586Z,2.47
2023-04-19T20:32:58.436Z,2.60
2023-04-19T20:35:27.196Z,2.63
2023-04-19T20:38:02.264Z,2.13
2023-04-19T20:40:31.895Z,2.87
2023-04-19T20:42:59.531Z,2.73
2023-04-19T20:45:27.589Z,2.47
2023-04-19T20:47:58.587Z,3.10
2023-04-19T20:50:26.634Z,3.47
2023-04-19T20:52:54.390Z,3.20
2023-04-19T20:55:22.090Z,3.00
2023-04-19T20:57:49.875Z,2.43
2023-04-19T21:00:18.186Z,2.93
2023-04-19T21:02:46.414Z,3.03
2023-04-19T21:05:15.484Z,3.00
2023-04-19T21:07:43.565Z,2.57
2023-04-19T21:10:13.652Z,2.50
2023-04-19T21:12:41.764Z,2.63
2023-04-19T21:15:12.043Z,1.97
2023-04-19T21:17:40.045Z,2.90
2023-04-19T21:20:12.399Z,2.00
2023-04-19T21:22:42.217Z,2.13
2023-04-19T21:25:11.110Z,2.40
2023-04-19T21:27:39.244Z,2.23
2023-04-19T21:30:08.918Z,2.13
2023-04-19T21:32:36.926Z,2.40
2023-04-19T21:35:04.966Z,2.27
2023-04-19T21:37:32.712Z,2.30
2023-04-19T21:40:01.858Z,2.13
2023-04-19T21:42:29.792Z,2.20
2023-04-19T21:44:57.543Z,1.97
2023-04-19T21:47:25.882Z,1.70
2023-04-19T21:49:53.839Z,2.17
2023-04-19T21:52:22.197Z,1.77
2023-04-19T21:54:50.328Z,2.13
2023-04-19T21:57:22.033Z,1.63
2023-04-19T21:59:49.803Z,2.13
2023-04-19T22:02:18.068Z,2.00
2023-04-19T22:04:46.421Z,1.80
2023-04-19T22:07:14.232Z,2.40
2023-04-19T22:09:42.047Z,1.40
2023-04-19T22:12:11.662Z,1.57
2023-04-19T22:14:40.834Z,1.43
2023-04-19T22:17:09.124Z,1.93
2023-04-19T22:19:37.996Z,1.87
2023-04-19T22:22:06.081Z,2.10
2023-04-19T22:24:37.364Z,2.50
2023-04-19T22:27:09.139Z,1.93
2023-04-19T22:29:38.607Z,1.90
2023-04-19T22:32:07.988Z,1.70
2023-04-19T22:34:36.493Z,1.20
2023-04-19T22:37:04.103Z,1.30
2023-04-19T22:39:31.850Z,2.00
2023-04-19T22:41:59.672Z,2.00
2023-04-19T22:44:27.429Z,1.83
2023-04-19T22:46:55.217Z,2.40
2023-04-19T22:49:24.375Z,2.00
2023-04-19T22:51:54.378Z,1.70
2023-04-19T22:54:22.181Z,1.13
2023-04-19T22:56:51.120Z,1.10
2023-04-19T22:59:19.209Z,1.40
2023-04-19T23:01:47.209Z,1.20
2023-04-19T23:04:15.700Z,1.83
2023-04-19T23:06:45.443Z,1.80
2023-04-19T23:09:13.926Z,1.63
2023-04-19T23:11:42.280Z,2.03
2023-04-19T23:14:10.527Z,1.30
2023-04-19T23:16:38.561Z,1.63
2023-04-19T23:19:07.159Z,1.67
2023-04-19T23:21:36.084Z,1.90
2023-04-19T23:24:05.714Z,1.60
2023-04-19T23:26:33.486Z,1.53
2023-04-19T23:29:01.219Z,2.20
2023-04-19T23:31:28.927Z,2.50
2023-04-19T23:33:56.650Z,2.03
2023-04-19T23:36:24.283Z,1.43
2023-04-19T23:38:51.982Z,1.60
2023-04-19T23:41:22.077Z,1.27
2023-04-19T23:43:49.952Z,1.50
2023-04-19T23:46:17.975Z,1.00
2023-04-19T23:48:46.094Z,2.20
2023-04-19T23:51:14.008Z,1.40
2023-04-19T23:53:41.851Z,2.03
2023-04-19T23:56:09.730Z,1.27
2023-04-19T23:58:39.039Z,2.00
